Terminal Aerodrome Forecast
Issued by NWS

Home | Current Version | Previous Version | Text Only | Print | Product List | Glossary On
Versions: 1 2 3 4 5 6 7 8 9 10 11 12
139
FTUS42 KGSP 040533
TAFGMU
TAF
KGMU 040533Z 0406/0506 12003KT P6SM -RA OVC080
     FM040900 06003KT P6SM OVC020
      TEMPO 0409/0412 4SM -RA OVC007
     FM041200 06005KT 4SM BR OVC008
     FM041500 07008KT 2SM -RA OVC005
     FM050000 05005KT 2SM -RA BR OVC003=

USA.gov is the U.S. government's official web portal to all federal, state and local government web resources and services.